Meteo Giornale » Osservazioni meteo Stati Uniti (USA) » Concord

ore: 15:51 - Osservazioni Meteo Concord
Lat. 43° 11' N Lon. 71° 30' W Alt. 105 metri s.l.m.

nuvoloso

28 °C

Nuvoloso

Temp. 24 Ore

12 °C

28 °C

Nord-Ovest

9.3 Km/h

Dew point 10 °C

Umidità 32 %

Visibilità  10 Km

Il sole sorge alle ore 06:09

Il sole tramonta alle ore 19:23

Data e Ora Cielo e Fenomeni T °C DP °C Um. % Pres. hPa Vis. km Vento km/h
Oggi h: 15:51 nuvoloso Nuvoloso 28 10 32 1018 10 NO 9.3
Oggi h: 14:51 sereno Sereno 27 11 36 1018 10 SO 7.4
Oggi h: 13:51 sereno Sereno 27 10 34 1019 10 S 9.3
Oggi h: 12:51 sereno Sereno 26 8 31 1020 10 O/NO 11.1
Oggi h: 11:51 sereno Sereno 24 10 41 1020 10 N 5.5
Oggi h: 10:51 sereno Sereno 23 11 46 1020 10 N 11.1
Oggi h: 09:51 sereno Sereno 21 12 56 1020 10 N 0
Oggi h: 08:51 sereno Sereno 18 13 72 1020 10 N 0
Oggi h: 07:51 sereno Sereno 16 12 77 1020 10 N 0
Oggi h: 06:51 sereno Sereno 12 11 93 1020 10 N 0
Oggi h: 05:51 sereno Sereno 12 10 87 1019 10 E/NE 7.4
Oggi h: 04:51 sereno Sereno 13 12 93 1019 10 N 0
Oggi h: 03:51 sereno Sereno 16 13 82 1019 10 NO 9.3
Oggi h: 02:51 sereno Sereno 17 13 77 1018 10 N/NO 11.1
Oggi h: 01:51 sereno Sereno 18 14 77 1018 10 NO 11.1
Oggi h: 00:51 sereno Sereno 18 16 88 1017 10 NO 7.4
Ieri h: 23:51 sereno Sereno 19 16 82 1017 10 N/NO 7.4
Ieri h: 22:51 poco_nuvoloso Poco Nuvoloso 20 17 82 1017 10 NO 9.3
Ieri h: 21:51 coperto Coperto 20 17 82 1017 10 N 5.5
Ieri h: 20:51 coperto Coperto 23 16 64 1016 10 N 5.5
Ieri h: 19:51 coperto Coperto 23 15 60 1015 10 O/SO 9.3
Ieri h: 18:51 molto_nuvoloso Molto Nuvoloso 24 14 53 1015 10 S/SO 11.1
Ieri h: 17:51 molto_nuvoloso Molto Nuvoloso 25 14 50 1015 10 SO 11.1
Ieri h: 16:51 coperto Coperto 26 14 47 1016 10 SO 14.8